Time;durP1;ratioP1;P1;durP2;ratioP2;P2;SDS_P1;SDS_P2;PMS_P1;PMS_P2;Temp;Humidity;BMP_temperature;BMP_pressure;BME280_temperature;BME280_humidity;BME280_pressure;Samples;Min_cycle;Max_cycle;Signal;HPM_P1;HPM_P2
2023/02/12 00:01:10;;;;;;;10.57;9.50;;;;;;;;;;5049963;28;20013;-64
2023/02/12 00:03:37;;;;;;;13.30;10.32;;;;;;;;;;5049636;28;20036;-61
2023/02/12 00:06:03;;;;;;;10.57;8.93;;;;;;;;;;5049931;28;20499;-62
2023/02/12 00:08:29;;;;;;;12.60;10.02;;;;;;;;;;5049408;28;20444;-61
2023/02/12 00:10:55;;;;;;;12.77;9.85;;;;;;;;;;5049464;28;20055;-62
2023/02/12 00:13:21;;;;;;;11.80;10.30;;;;;;;;;;5031390;28;20029;-62
2023/02/12 00:15:47;;;;;;;14.73;10.57;;;;;;;;;;5045526;28;20028;-62
2023/02/12 00:18:13;;;;;;;13.73;10.27;;;;;;;;;;5050231;28;20284;-62
2023/02/12 00:20:39;;;;;;;12.98;10.98;;;;;;;;;;5048066;28;20045;-61
2023/02/12 00:23:05;;;;;;;13.50;10.05;;;;;;;;;;5049257;28;20481;-62
2023/02/12 00:25:32;;;;;;;13.23;10.13;;;;;;;;;;5052578;28;20428;-62
2023/02/12 00:27:58;;;;;;;12.23;9.90;;;;;;;;;;5033905;28;20068;-62
2023/02/12 00:30:24;;;;;;;12.20;10.55;;;;;;;;;;5046596;28;20060;-62
2023/02/12 00:32:50;;;;;;;10.88;9.80;;;;;;;;;;5052224;28;20029;-62
2023/02/12 00:35:16;;;;;;;12.32;10.85;;;;;;;;;;5034397;28;20028;-61
2023/02/12 00:37:42;;;;;;;13.48;10.90;;;;;;;;;;5052904;28;20478;-62
2023/02/12 00:40:08;;;;;;;12.40;10.55;;;;;;;;;;5052226;28;20040;-62
2023/02/12 00:42:34;;;;;;;13.75;10.60;;;;;;;;;;5052234;28;20028;-62
2023/02/12 00:45:00;;;;;;;10.93;9.57;;;;;;;;;;5053864;28;20032;-62
2023/02/12 00:47:26;;;;;;;11.95;10.25;;;;;;;;;;5053937;28;20488;-63
2023/02/12 00:49:52;;;;;;;12.80;10.43;;;;;;;;;;5054248;28;20033;-63
2023/02/12 00:52:18;;;;;;;12.25;10.02;;;;;;;;;;5053809;28;20449;-62
2023/02/12 00:54:44;;;;;;;12.15;10.40;;;;;;;;;;5054409;28;20044;-62
2023/02/12 00:57:10;;;;;;;11.50;10.30;;;;;;;;;;5054152;28;20397;-63
2023/02/12 00:59:38;;;;;;;11.05;9.68;;;;;;;;;;5053721;28;20036;-63
2023/02/12 01:02:04;;;;;;;11.93;10.38;;;;;;;;;;5054108;28;20112;-63
2023/02/12 01:04:30;;;;;;;12.55;11.20;;;;;;;;;;5053197;28;20441;-63
2023/02/12 01:06:56;;;;;;;10.68;9.48;;;;;;;;;;5054158;28;20033;-63
2023/02/12 01:09:22;;;;;;;12.27;9.85;;;;;;;;;;5053608;28;20037;-63
2023/02/12 01:11:48;;;;;;;11.60;10.02;;;;;;;;;;5054252;28;20017;-63
2023/02/12 01:14:14;;;;;;;11.70;9.95;;;;;;;;;;5053990;28;20032;-63
2023/02/12 01:16:40;;;;;;;11.65;10.27;;;;;;;;;;5054040;28;20165;-63
2023/02/12 01:19:06;;;;;;;11.90;10.48;;;;;;;;;;5053430;28;20103;-63
2023/02/12 01:21:34;;;;;;;12.75;10.77;;;;;;;;;;5053218;28;20497;-63
2023/02/12 01:24:00;;;;;;;11.90;10.50;;;;;;;;;;5053149;28;20037;-63
2023/02/12 01:26:27;;;;;;;11.38;9.68;;;;;;;;;;5053226;28;20021;-63
2023/02/12 01:28:55;;;;;;;11.13;9.90;;;;;;;;;;5053625;28;20047;-61
2023/02/12 01:31:25;;;;;;;12.02;10.52;;;;;;;;;;5053020;28;20496;-63
2023/02/12 01:33:53;;;;;;;12.13;10.02;;;;;;;;;;5053434;28;20029;-63
2023/02/12 01:36:19;;;;;;;11.55;10.05;;;;;;;;;;5052061;28;20021;-63
2023/02/12 01:38:45;;;;;;;11.27;9.90;;;;;;;;;;5052868;28;20389;-62
2023/02/12 01:41:12;;;;;;;14.00;10.75;;;;;;;;;;5053485;28;20029;-63
2023/02/12 01:43:38;;;;;;;12.45;10.32;;;;;;;;;;5052954;28;20025;-63
2023/02/12 01:46:05;;;;;;;10.98;9.88;;;;;;;;;;5053215;28;20438;-63
2023/02/12 01:48:39;;;;;;;11.98;10.35;;;;;;;;;;5052559;28;20514;-63
2023/02/12 01:51:06;;;;;;;11.68;9.50;;;;;;;;;;5053144;28;20423;-64
2023/02/12 01:53:38;;;;;;;11.40;10.20;;;;;;;;;;5053229;28;20025;-64
2023/02/12 01:56:05;;;;;;;11.05;9.70;;;;;;;;;;5052962;28;20508;-64
2023/02/12 01:58:33;;;;;;;12.88;10.60;;;;;;;;;;5052424;28;20493;-64
2023/02/12 02:01:00;;;;;;;11.23;9.50;;;;;;;;;;5052679;28;20104;-64
2023/02/12 02:03:26;;;;;;;11.18;9.90;;;;;;;;;;5052431;28;20037;-64
2023/02/12 02:05:52;;;;;;;10.98;9.75;;;;;;;;;;5052533;28;20025;-64
2023/02/12 02:08:18;;;;;;;11.40;10.18;;;;;;;;;;5052819;28;20442;-64
2023/02/12 02:10:44;;;;;;;14.30;10.50;;;;;;;;;;5053008;28;20421;-61
2023/02/12 02:15:58;;;;;;;12.30;9.30;;;;;;;;;;5052626;28;20039;-64
2023/02/12 02:18:26;;;;;;;12.55;10.43;;;;;;;;;;5052471;28;20033;-64
2023/02/12 02:21:01;;;;;;;11.07;9.82;;;;;;;;;;5052492;28;20025;-64
2023/02/12 02:23:36;;;;;;;11.63;9.98;;;;;;;;;;5052651;28;20078;-64
2023/02/12 02:26:06;;;;;;;12.10;10.73;;;;;;;;;;5051816;28;20025;-64
2023/02/12 02:28:55;;;;;;;10.85;9.40;;;;;;;;;;5052000;28;20033;-64
2023/02/12 02:31:36;;;;;;;12.90;9.75;;;;;;;;;;5036880;28;20489;-64
2023/02/12 02:34:13;;;;;;;13.50;9.40;;;;;;;;;;5051789;28;20044;-65
2023/02/12 02:36:39;;;;;;;10.80;9.70;;;;;;;;;;5052045;28;20031;-64
2023/02/12 02:39:08;;;;;;;11.32;9.68;;;;;;;;;;5052027;28;20381;-65
2023/02/12 02:41:37;;;;;;;10.98;9.75;;;;;;;;;;5051645;28;20027;-64
2023/02/12 02:44:08;;;;;;;10.75;9.07;;;;;;;;;;5051688;28;20060;-64
2023/02/12 02:46:48;;;;;;;10.57;9.10;;;;;;;;;;5051535;28;20025;-65
2023/02/12 02:49:18;;;;;;;9.82;8.70;;;;;;;;;;5051810;28;20056;-65
2023/02/12 02:51:47;;;;;;;10.75;9.02;;;;;;;;;;5052205;28;20021;-65
2023/02/12 02:54:18;;;;;;;10.48;9.20;;;;;;;;;;5052531;28;20039;-65
2023/02/12 02:56:45;;;;;;;11.93;9.27;;;;;;;;;;5052256;28;20028;-65
2023/02/12 02:59:15;;;;;;;11.55;9.25;;;;;;;;;;5052241;28;20505;-65
2023/02/12 03:01:44;;;;;;;10.15;8.82;;;;;;;;;;5052309;28;20389;-65
2023/02/12 03:04:49;;;;;;;9.88;8.68;;;;;;;;;;5052050;28;20028;-65
2023/02/12 03:07:15;;;;;;;10.23;8.98;;;;;;;;;;4939737;29;20075;-62
2023/02/12 03:09:45;;;;;;;11.25;9.05;;;;;;;;;;4932802;29;20047;-65
2023/02/12 03:12:14;;;;;;;10.50;8.80;;;;;;;;;;4982948;28;20034;-65
2023/02/12 03:14:42;;;;;;;9.85;8.50;;;;;;;;;;5039512;28;20048;-65
2023/02/12 03:17:09;;;;;;;11.00;8.98;;;;;;;;;;5051730;28;20021;-65
2023/02/12 03:19:39;;;;;;;10.55;9.15;;;;;;;;;;5051112;28;20083;-65
2023/02/12 03:22:10;;;;;;;9.73;8.73;;;;;;;;;;5051288;28;20801;-65
2023/02/12 03:24:39;;;;;;;10.07;9.02;;;;;;;;;;5050989;28;20028;-64
2023/02/12 03:27:11;;;;;;;10.73;8.80;;;;;;;;;;5051640;28;20051;-65
2023/02/12 03:29:37;;;;;;;11.40;8.98;;;;;;;;;;5050598;28;20071;-65
2023/02/12 03:32:06;;;;;;;10.90;8.60;;;;;;;;;;5051238;28;20025;-65
2023/02/12 03:34:38;;;;;;;9.80;8.60;;;;;;;;;;5050983;28;20037;-65
2023/02/12 03:37:12;;;;;;;9.18;8.15;;;;;;;;;;5051066;28;20081;-66
2023/02/12 03:39:38;;;;;;;9.07;7.77;;;;;;;;;;5050753;28;20029;-65
2023/02/12 03:42:14;;;;;;;9.23;8.18;;;;;;;;;;5051064;28;20029;-64
2023/02/12 03:44:52;;;;;;;9.02;7.90;;;;;;;;;;5051081;28;20029;-65
2023/02/12 03:47:34;;;;;;;9.93;8.00;;;;;;;;;;5051137;28;20116;-65
2023/02/12 03:50:00;;;;;;;9.40;7.80;;;;;;;;;;5050951;28;20062;-66
2023/02/12 03:52:26;;;;;;;8.60;7.13;;;;;;;;;;5051016;28;20115;-66
2023/02/12 03:54:52;;;;;;;9.15;7.97;;;;;;;;;;5050875;28;20477;-66
2023/02/12 03:57:23;;;;;;;9.63;8.00;;;;;;;;;;5050946;28;20031;-66
2023/02/12 03:59:50;;;;;;;8.93;7.93;;;;;;;;;;5049657;28;20428;-66
2023/02/12 04:02:17;;;;;;;9.93;7.85;;;;;;;;;;5050305;28;20106;-65
2023/02/12 04:04:44;;;;;;;8.52;7.38;;;;;;;;;;5050936;28;20029;-66
2023/02/12 04:07:10;;;;;;;9.05;7.25;;;;;;;;;;5050919;28;20037;-66
2023/02/12 04:09:36;;;;;;;9.02;7.30;;;;;;;;;;5050499;28;20048;-67
2023/02/12 04:12:02;;;;;;;9.23;6.88;;;;;;;;;;5050592;28;20021;-65
2023/02/12 04:14:31;;;;;;;9.25;7.95;;;;;;;;;;5050275;28;20091;-65
2023/02/12 04:17:03;;;;;;;10.05;8.05;;;;;;;;;;5050383;28;20067;-66
2023/02/12 04:19:49;;;;;;;8.32;6.97;;;;;;;;;;5050147;28;20543;-66
2023/02/12 04:22:24;;;;;;;8.82;6.80;;;;;;;;;;5050027;28;20110;-63
2023/02/12 04:25:01;;;;;;;9.05;7.38;;;;;;;;;;5050353;28;20516;-65
2023/02/12 04:27:51;;;;;;;7.97;7.15;;;;;;;;;;5050078;28;20108;-65
2023/02/12 04:30:20;;;;;;;7.72;6.53;;;;;;;;;;5050097;28;20502;-65
2023/02/12 04:32:47;;;;;;;8.80;7.00;;;;;;;;;;5050226;28;20147;-65
2023/02/12 04:35:24;;;;;;;8.23;6.97;;;;;;;;;;5050492;28;20514;-65
2023/02/12 04:37:54;;;;;;;7.90;6.97;;;;;;;;;;5049993;28;20071;-65
2023/02/12 04:40:21;;;;;;;8.23;6.82;;;;;;;;;;5049926;28;20029;-66
2023/02/12 04:42:49;;;;;;;8.75;6.80;;;;;;;;;;5050566;28;20075;-65
2023/02/12 04:45:27;;;;;;;7.05;6.25;;;;;;;;;;5049966;28;20028;-62
2023/02/12 04:47:53;;;;;;;7.07;6.25;;;;;;;;;;5049850;28;20128;-65
2023/02/12 04:50:19;;;;;;;7.10;6.38;;;;;;;;;;5050111;28;20021;-66
2023/02/12 04:52:45;;;;;;;7.70;6.30;;;;;;;;;;5050608;28;20048;-62
2023/02/12 04:55:11;;;;;;;7.30;6.32;;;;;;;;;;5050570;28;20427;-66
2023/02/12 04:57:37;;;;;;;7.95;6.18;;;;;;;;;;5050179;28;20029;-66
2023/02/12 05:00:06;;;;;;;7.38;6.22;;;;;;;;;;5050054;28;20029;-65
2023/02/12 05:02:33;;;;;;;7.63;6.05;;;;;;;;;;5048775;28;20025;-66
2023/02/12 05:04:59;;;;;;;7.45;6.30;;;;;;;;;;5050103;28;20364;-65
2023/02/12 05:07:25;;;;;;;7.68;6.00;;;;;;;;;;5049603;28;20110;-64
2023/02/12 05:09:51;;;;;;;8.30;6.18;;;;;;;;;;5050133;28;20029;-67
2023/02/12 05:12:17;;;;;;;6.95;5.72;;;;;;;;;;5053424;28;20051;-66
2023/02/12 05:14:43;;;;;;;6.80;6.10;;;;;;;;;;5054131;28;20493;-67
2023/02/12 05:17:09;;;;;;;6.22;5.20;;;;;;;;;;5053865;28;20056;-66
2023/02/12 05:19:35;;;;;;;6.75;6.00;;;;;;;;;;5053337;28;20025;-64
2023/02/12 05:22:01;;;;;;;6.80;5.55;;;;;;;;;;5053575;28;20397;-67
2023/02/12 05:24:27;;;;;;;7.55;5.50;;;;;;;;;;5053069;28;20074;-66
2023/02/12 05:26:53;;;;;;;6.35;5.55;;;;;;;;;;5053938;28;20032;-66
2023/02/12 05:29:19;;;;;;;6.95;5.57;;;;;;;;;;5053168;28;20730;-65
2023/02/12 05:31:45;;;;;;;6.35;5.03;;;;;;;;;;5053100;28;20480;-62
2023/02/12 05:34:11;;;;;;;7.10;5.22;;;;;;;;;;5053494;28;20056;-66
2023/02/12 05:36:37;;;;;;;5.90;5.00;;;;;;;;;;5052849;28;20029;-66
2023/02/12 05:39:03;;;;;;;5.80;5.20;;;;;;;;;;5053427;28;20104;-66
2023/02/12 05:41:33;;;;;;;7.43;5.60;;;;;;;;;;5053495;28;20033;-66
2023/02/12 05:43:59;;;;;;;6.68;4.95;;;;;;;;;;5053216;28;20082;-66
2023/02/12 05:46:25;;;;;;;6.45;5.45;;;;;;;;;;5052830;28;20033;-66
2023/02/12 05:48:52;;;;;;;5.90;5.10;;;;;;;;;;5052339;28;20102;-66
2023/02/12 05:51:20;;;;;;;6.20;5.30;;;;;;;;;;5052935;28;20029;-66
2023/02/12 05:53:46;;;;;;;7.93;4.90;;;;;;;;;;5053470;28;20083;-66
2023/02/12 05:56:13;;;;;;;5.57;4.40;;;;;;;;;;5053421;28;20021;-66
2023/02/12 05:58:40;;;;;;;7.25;4.78;;;;;;;;;;5053055;28;20417;-66
2023/02/12 06:01:11;;;;;;;6.15;4.75;;;;;;;;;;5052041;28;20025;-66
2023/02/12 06:03:37;;;;;;;5.90;4.90;;;;;;;;;;5052689;28;20430;-66
2023/02/12 06:06:03;;;;;;;6.72;4.90;;;;;;;;;;5052439;28;20382;-66
2023/02/12 06:08:29;;;;;;;7.07;4.20;;;;;;;;;;5052871;28;20078;-66
2023/02/12 06:10:55;;;;;;;5.60;4.53;;;;;;;;;;5052790;28;20397;-66
2023/02/12 06:13:21;;;;;;;6.05;4.20;;;;;;;;;;5052719;28;20017;-65
2023/02/12 06:15:46;;;;;;;5.65;4.53;;;;;;;;;;5052487;28;20086;-66
2023/02/12 06:18:14;;;;;;;5.03;3.83;;;;;;;;;;5053283;28;20036;-67
2023/02/12 06:20:40;;;;;;;7.28;4.25;;;;;;;;;;5052265;28;20072;-65
2023/02/12 06:23:06;;;;;;;4.90;3.92;;;;;;;;;;5052330;28;20112;-64
2023/02/12 06:25:32;;;;;;;5.70;4.50;;;;;;;;;;5052118;28;20036;-66
2023/02/12 06:27:58;;;;;;;5.72;4.38;;;;;;;;;;5051717;28;20033;-66
2023/02/12 06:30:24;;;;;;;5.43;4.18;;;;;;;;;;5051837;28;20392;-67
2023/02/12 06:32:50;;;;;;;5.05;3.83;;;;;;;;;;5051784;28;20037;-66
2023/02/12 06:35:16;;;;;;;5.82;4.25;;;;;;;;;;5033816;28;20432;-64
2023/02/12 06:37:42;;;;;;;5.15;3.80;;;;;;;;;;5052705;28;20029;-67
2023/02/12 06:40:08;;;;;;;6.95;4.10;;;;;;;;;;5052184;28;20036;-67
2023/02/12 06:42:34;;;;;;;5.53;4.20;;;;;;;;;;5051831;28;20060;-69
2023/02/12 06:45:00;;;;;;;5.82;4.10;;;;;;;;;;5052111;28;20033;-66
2023/02/12 06:47:26;;;;;;;4.60;3.80;;;;;;;;;;5051810;28;20026;-66
2023/02/12 06:49:52;;;;;;;5.00;3.83;;;;;;;;;;5051832;28;20041;-66
2023/02/12 06:52:20;;;;;;;5.13;4.20;;;;;;;;;;5051737;28;20025;-66
2023/02/12 06:54:46;;;;;;;4.97;4.20;;;;;;;;;;5051888;28;20055;-66
2023/02/12 06:57:11;;;;;;;4.40;3.97;;;;;;;;;;5052498;28;20481;-66
2023/02/12 06:59:37;;;;;;;5.53;4.00;;;;;;;;;;5051665;28;20025;-67
2023/02/12 07:02:04;;;;;;;4.22;3.42;;;;;;;;;;5051839;28;20435;-67
2023/02/12 07:04:30;;;;;;;5.60;3.38;;;;;;;;;;5051154;28;20024;-66
2023/02/12 07:06:56;;;;;;;5.47;3.28;;;;;;;;;;5051419;28;20033;-65
2023/02/12 07:09:21;;;;;;;4.35;3.60;;;;;;;;;;5051470;28;20052;-66
2023/02/12 07:11:47;;;;;;;4.65;3.60;;;;;;;;;;5052044;28;20021;-65
2023/02/12 07:14:15;;;;;;;3.92;3.15;;;;;;;;;;5052021;28;20366;-63
2023/02/12 07:16:41;;;;;;;5.95;3.63;;;;;;;;;;5052292;28;20393;-67
2023/02/12 07:19:07;;;;;;;5.35;3.10;;;;;;;;;;5051539;28;20033;-67
2023/02/12 07:21:33;;;;;;;4.45;3.75;;;;;;;;;;5051242;28;20029;-65
2023/02/12 07:23:59;;;;;;;4.93;3.40;;;;;;;;;;5051580;28;20584;-66
2023/02/12 07:26:25;;;;;;;5.07;3.22;;;;;;;;;;5050988;28;20077;-66
2023/02/12 07:28:51;;;;;;;4.03;3.20;;;;;;;;;;5051223;28;20467;-66
2023/02/12 07:31:19;;;;;;;4.15;3.42;;;;;;;;;;5051132;28;20048;-66
2023/02/12 07:33:46;;;;;;;4.05;2.83;;;;;;;;;;5050490;28;20033;-63
2023/02/12 07:36:13;;;;;;;4.50;3.17;;;;;;;;;;5051484;28;20552;-66
2023/02/12 07:38:39;;;;;;;4.13;3.40;;;;;;;;;;5050628;28;20036;-66
2023/02/12 07:41:06;;;;;;;4.47;3.28;;;;;;;;;;5051311;28;20170;-67
2023/02/12 07:43:32;;;;;;;5.50;3.13;;;;;;;;;;5050896;28;20078;-66
2023/02/12 07:46:05;;;;;;;3.92;3.10;;;;;;;;;;5051251;28;20199;-66
2023/02/12 07:48:31;;;;;;;4.07;3.05;;;;;;;;;;5050908;28;20370;-67
2023/02/12 07:50:57;;;;;;;3.63;3.10;;;;;;;;;;5030239;28;20033;-68
2023/02/12 07:53:23;;;;;;;5.25;3.22;;;;;;;;;;5031083;28;20079;-67
2023/02/12 07:55:49;;;;;;;3.58;2.75;;;;;;;;;;5050291;28;20116;-66
2023/02/12 07:58:15;;;;;;;5.25;3.40;;;;;;;;;;5050914;28;20159;-62
2023/02/12 08:00:41;;;;;;;3.80;3.13;;;;;;;;;;5050991;28;20025;-67
2023/02/12 08:03:07;;;;;;;4.35;2.75;;;;;;;;;;5051274;28;20032;-58
2023/02/12 08:05:33;;;;;;;4.57;2.70;;;;;;;;;;5049874;28;20025;-59
2023/02/12 08:07:59;;;;;;;7.15;3.10;;;;;;;;;;5051066;28;20139;-60
2023/02/12 08:10:25;;;;;;;4.68;2.75;;;;;;;;;;5050369;28;20033;-60
2023/02/12 08:12:51;;;;;;;4.47;2.53;;;;;;;;;;5050135;28;20396;-58
2023/02/12 08:15:17;;;;;;;7.95;2.42;;;;;;;;;;5050785;28;20025;-58
2023/02/12 08:17:43;;;;;;;7.97;2.58;;;;;;;;;;5051032;28;20068;-62
2023/02/12 08:20:09;;;;;;;5.03;2.75;;;;;;;;;;5051078;28;20041;-64
2023/02/12 08:22:35;;;;;;;6.75;2.97;;;;;;;;;;5050737;28;20029;-60
2023/02/12 08:25:01;;;;;;;4.65;2.70;;;;;;;;;;5051122;28;20021;-60
2023/02/12 08:27:27;;;;;;;7.15;2.80;;;;;;;;;;5050840;28;20059;-60
2023/02/12 08:29:53;;;;;;;7.22;2.97;;;;;;;;;;5050942;28;20112;-60
2023/02/12 08:32:19;;;;;;;10.65;2.88;;;;;;;;;;5050381;28;20067;-60
2023/02/12 08:34:45;;;;;;;8.65;2.55;;;;;;;;;;5051084;28;20052;-60
2023/02/12 08:37:11;;;;;;;9.65;2.75;;;;;;;;;;5051183;28;20057;-59
2023/02/12 08:39:37;;;;;;;4.80;2.58;;;;;;;;;;5050545;28;20556;-60
2023/02/12 08:42:04;;;;;;;5.10;2.88;;;;;;;;;;5050962;28;20017;-60
2023/02/12 08:44:30;;;;;;;7.88;2.90;;;;;;;;;;5050776;28;20462;-59
2023/02/12 08:46:56;;;;;;;4.45;2.97;;;;;;;;;;5053702;28;20029;-60
2023/02/12 08:49:24;;;;;;;7.35;2.83;;;;;;;;;;5054104;28;20432;-60
2023/02/12 08:51:51;;;;;;;5.05;3.58;;;;;;;;;;5053046;28;20040;-60
2023/02/12 08:54:19;;;;;;;6.25;3.30;;;;;;;;;;5053649;28;20139;-60
2023/02/12 08:56:45;;;;;;;8.63;3.70;;;;;;;;;;5054856;28;20025;-60
2023/02/12 08:59:11;;;;;;;5.38;3.28;;;;;;;;;;5054770;28;20032;-60
2023/02/12 09:01:40;;;;;;;6.10;3.67;;;;;;;;;;5053762;28;20037;-60
2023/02/12 09:04:08;;;;;;;8.25;4.05;;;;;;;;;;5053090;28;20045;-62
2023/02/12 09:06:35;;;;;;;8.85;3.83;;;;;;;;;;5054051;28;20448;-60
2023/02/12 09:09:01;;;;;;;8.15;4.13;;;;;;;;;;5053875;28;20044;-60
2023/02/12 09:11:31;;;;;;;16.13;4.47;;;;;;;;;;5053588;28;20028;-60
2023/02/12 09:14:01;;;;;;;5.88;3.97;;;;;;;;;;5053162;28;20378;-62
2023/02/12 09:16:29;;;;;;;5.82;4.25;;;;;;;;;;5051462;28;20065;-61
2023/02/12 09:18:55;;;;;;;5.68;3.88;;;;;;;;;;5052390;28;20024;-61
2023/02/12 09:21:21;;;;;;;8.48;4.30;;;;;;;;;;5049616;28;20068;-61
2023/02/12 09:23:47;;;;;;;8.48;4.38;;;;;;;;;;5052593;28;20446;-61
2023/02/12 09:26:15;;;;;;;7.72;3.72;;;;;;;;;;5034785;28;20036;-61
2023/02/12 09:28:41;;;;;;;7.53;4.25;;;;;;;;;;5050041;28;20473;-61
2023/02/12 09:31:08;;;;;;;12.30;4.32;;;;;;;;;;5052386;28;20025;-61
2023/02/12 09:33:34;;;;;;;10.38;4.65;;;;;;;;;;5033675;28;20051;-61
2023/02/12 09:36:11;;;;;;;11.32;4.40;;;;;;;;;;5052138;28;20028;-61
2023/02/12 09:38:37;;;;;;;7.50;4.60;;;;;;;;;;5051961;28;20017;-59
2023/02/12 09:41:06;;;;;;;12.45;5.32;;;;;;;;;;5052237;28;20032;-60
2023/02/12 09:43:48;;;;;;;14.38;4.63;;;;;;;;;;5049643;28;20052;-60
2023/02/12 09:46:29;;;;;;;12.90;4.80;;;;;;;;;;5050973;28;20047;-60
2023/02/12 09:49:21;;;;;;;13.43;4.32;;;;;;;;;;5050307;28;20428;-61
2023/02/12 09:51:50;;;;;;;12.93;4.63;;;;;;;;;;5014169;28;20571;-60
2023/02/12 09:54:17;;;;;;;16.98;4.90;;;;;;;;;;5051814;28;20400;-60
2023/02/12 09:56:45;;;;;;;13.40;4.90;;;;;;;;;;5051044;28;20425;-60
2023/02/12 09:59:14;;;;;;;10.68;5.00;;;;;;;;;;5050937;28;20554;-60
2023/02/12 10:01:40;;;;;;;16.45;5.53;;;;;;;;;;5052303;28;20075;-66
2023/02/12 10:04:06;;;;;;;10.43;5.53;;;;;;;;;;5053429;28;20075;-64
2023/02/12 10:06:39;;;;;;;10.55;5.18;;;;;;;;;;5052869;28;20070;-59
2023/02/12 10:09:22;;;;;;;10.50;5.25;;;;;;;;;;5053205;28;20505;-60
2023/02/12 10:11:49;;;;;;;17.45;5.85;;;;;;;;;;5053362;28;20017;-60
2023/02/12 10:14:18;;;;;;;13.57;5.55;;;;;;;;;;5053381;28;20041;-60
2023/02/12 10:16:47;;;;;;;8.40;5.00;;;;;;;;;;5053158;28;20024;-59
2023/02/12 10:19:33;;;;;;;10.98;5.25;;;;;;;;;;5052784;28;20036;-53
2023/02/12 10:22:08;;;;;;;9.60;5.57;;;;;;;;;;4991736;28;20033;-59
2023/02/12 10:24:34;;;;;;;10.95;5.38;;;;;;;;;;5052744;28;20021;-62
2023/02/12 10:27:09;;;;;;;10.02;5.63;;;;;;;;;;5052664;28;20439;-64
2023/02/12 10:29:37;;;;;;;10.48;5.22;;;;;;;;;;5052003;28;20037;-63
2023/02/12 10:32:11;;;;;;;12.00;5.53;;;;;;;;;;5052887;28;20056;-60
2023/02/12 10:34:38;;;;;;;11.43;5.40;;;;;;;;;;5052467;28;20489;-66
2023/02/12 10:37:09;;;;;;;7.43;5.20;;;;;;;;;;5052608;28;20441;-61
2023/02/12 10:39:37;;;;;;;9.65;5.82;;;;;;;;;;5052427;28;20051;-61
2023/02/12 10:42:21;;;;;;;11.82;6.00;;;;;;;;;;5052697;28;20017;-61
2023/02/12 10:44:47;;;;;;;10.80;5.82;;;;;;;;;;5052672;28;20112;-61
2023/02/12 10:47:18;;;;;;;14.70;6.03;;;;;;;;;;5052821;28;20029;-61
2023/02/12 10:49:44;;;;;;;8.43;6.10;;;;;;;;;;5052374;28;20400;-61
2023/02/12 10:52:15;;;;;;;8.70;5.32;;;;;;;;;;5052581;28;20382;-60
2023/02/12 10:54:43;;;;;;;12.73;6.00;;;;;;;;;;5051732;28;20451;-61
2023/02/12 10:57:22;;;;;;;8.05;6.22;;;;;;;;;;5052701;28;20032;-63
2023/02/12 10:59:50;;;;;;;7.38;6.00;;;;;;;;;;5052304;28;20071;-61
2023/02/12 11:02:29;;;;;;;13.70;6.00;;;;;;;;;;5051980;28;20032;-62
2023/02/12 11:04:57;;;;;;;8.25;6.35;;;;;;;;;;5051810;28;20032;-63
2023/02/12 11:07:23;;;;;;;16.30;6.95;;;;;;;;;;5051322;28;20492;-63
2023/02/12 11:09:50;;;;;;;11.18;6.43;;;;;;;;;;5051642;28;20036;-61
2023/02/12 11:12:28;;;;;;;14.13;6.45;;;;;;;;;;5051817;28;20021;-58
2023/02/12 11:14:56;;;;;;;7.75;5.93;;;;;;;;;;5051638;28;20440;-58
2023/02/12 11:17:28;;;;;;;7.82;6.35;;;;;;;;;;5051503;28;20426;-59
2023/02/12 11:20:01;;;;;;;10.15;6.30;;;;;;;;;;5052064;28;20029;-59
2023/02/12 11:22:28;;;;;;;13.13;6.20;;;;;;;;;;5051383;28;20103;-59
2023/02/12 11:25:01;;;;;;;9.35;6.75;;;;;;;;;;5051984;28;20127;-58
2023/02/12 11:27:29;;;;;;;10.23;6.20;;;;;;;;;;5050913;28;20033;-59
2023/02/12 11:30:10;;;;;;;12.90;5.70;;;;;;;;;;5051314;28;20037;-58
2023/02/12 11:32:36;;;;;;;8.98;5.15;;;;;;;;;;5051629;28;20027;-59
2023/02/12 11:35:10;;;;;;;9.15;5.35;;;;;;;;;;5051386;28;20111;-58
2023/02/12 11:37:39;;;;;;;8.93;5.50;;;;;;;;;;5050990;28;20021;-58
2023/02/12 11:40:05;;;;;;;8.60;5.68;;;;;;;;;;5031520;28;20029;-59
2023/02/12 11:42:35;;;;;;;7.38;4.95;;;;;;;;;;5031255;28;20421;-59
2023/02/12 11:45:02;;;;;;;8.30;5.18;;;;;;;;;;5031609;28;20033;-61
2023/02/12 11:47:31;;;;;;;11.13;5.07;;;;;;;;;;5031317;28;20024;-61
2023/02/12 11:50:15;;;;;;;9.82;4.72;;;;;;;;;;5042828;28;20098;-62
2023/02/12 11:52:41;;;;;;;8.35;4.63;;;;;;;;;;5051672;28;20071;-63
2023/02/12 11:55:20;;;;;;;8.32;4.22;;;;;;;;;;5051353;28;20021;-75
2023/02/12 11:57:47;;;;;;;6.65;4.80;;;;;;;;;;5051185;28;20017;-66
2023/02/12 12:00:13;;;;;;;6.50;4.25;;;;;;;;;;5051605;28;20033;-70
2023/02/12 12:02:42;;;;;;;9.82;4.63;;;;;;;;;;5049736;28;20079;-62
2023/02/12 12:05:13;;;;;;;8.77;4.88;;;;;;;;;;5050701;28;20124;-62
2023/02/12 12:07:41;;;;;;;7.40;5.07;;;;;;;;;;5050173;28;20501;-62
2023/02/12 12:10:13;;;;;;;10.25;5.30;;;;;;;;;;5050424;28;20474;-67
2023/02/12 12:12:45;;;;;;;9.55;4.68;;;;;;;;;;5046863;28;20036;-60
2023/02/12 12:21:12;;;;;;;13.50;4.72;;;;;;;;;;5047616;28;20412;-62
2023/02/12 12:24:11;;;;;;;9.07;4.70;;;;;;;;;;5048085;28;20025;-63
2023/02/12 12:26:39;;;;;;;11.75;4.60;;;;;;;;;;4993834;28;20116;-61
2023/02/12 12:29:26;;;;;;;11.32;4.85;;;;;;;;;;5048977;28;20074;-60
2023/02/12 12:31:57;;;;;;;10.70;4.75;;;;;;;;;;5047897;28;20027;-65
2023/02/12 12:34:24;;;;;;;6.53;4.47;;;;;;;;;;5048488;28;20511;-60
2023/02/12 12:37:07;;;;;;;6.75;4.45;;;;;;;;;;5049841;28;20033;-60
2023/02/12 12:39:39;;;;;;;7.25;4.20;;;;;;;;;;5049492;28;20123;-60
2023/02/12 12:42:23;;;;;;;7.28;4.18;;;;;;;;;;5050994;28;20396;-60
2023/02/12 12:45:08;;;;;;;5.75;4.43;;;;;;;;;;5030977;28;20018;-61
2023/02/12 12:48:00;;;;;;;5.47;3.92;;;;;;;;;;5030673;28;20029;-61
2023/02/12 12:50:44;;;;;;;5.07;3.42;;;;;;;;;;5042634;28;20120;-62
2023/02/12 12:53:22;;;;;;;7.63;4.40;;;;;;;;;;5049656;28;20123;-61
2023/02/12 12:55:48;;;;;;;7.80;4.15;;;;;;;;;;5049922;28;20075;-62
2023/02/12 12:58:33;;;;;;;7.00;3.88;;;;;;;;;;5050114;28;20428;-61
2023/02/12 13:00:59;;;;;;;7.25;3.58;;;;;;;;;;5050320;28;20021;-61
2023/02/12 13:03:43;;;;;;;4.80;3.35;;;;;;;;;;5050480;28;20032;-60
2023/02/12 13:06:21;;;;;;;7.80;3.78;;;;;;;;;;5050512;28;20043;-61
2023/02/12 13:09:05;;;;;;;8.48;4.55;;;;;;;;;;5050422;28;20074;-61
2023/02/12 13:11:40;;;;;;;5.40;3.55;;;;;;;;;;5050447;28;20033;-61
2023/02/12 13:14:19;;;;;;;6.88;3.15;;;;;;;;;;5050479;28;20067;-61
2023/02/12 13:16:48;;;;;;;5.95;3.55;;;;;;;;;;5050301;28;20481;-61
2023/02/12 13:19:18;;;;;;;6.68;3.55;;;;;;;;;;5050876;28;20025;-61
2023/02/12 13:21:57;;;;;;;5.95;3.67;;;;;;;;;;5050876;28;20033;-70
2023/02/12 13:24:26;;;;;;;6.55;3.58;;;;;;;;;;5050277;28;20018;-73
2023/02/12 13:26:57;;;;;;;4.60;3.42;;;;;;;;;;5050422;28;20115;-72
2023/02/12 13:29:33;;;;;;;5.35;3.20;;;;;;;;;;5050019;28;20064;-66
2023/02/12 13:31:58;;;;;;;;;;;;;;;;;;5050508;28;20117;-63
2023/02/12 13:34:27;;;;;;;4.82;3.83;;;;;;;;;;5053909;28;19940;-64
2023/02/12 13:36:54;;;;;;;9.73;4.57;;;;;;;;;;5053946;28;20033;-72
2023/02/12 13:39:37;;;;;;;4.38;3.53;;;;;;;;;;5053618;28;20091;-66
2023/02/12 13:42:13;;;;;;;5.72;3.33;;;;;;;;;;5053818;28;20025;-61
2023/02/12 13:44:42;;;;;;;8.38;4.28;;;;;;;;;;5053089;28;20056;-73
2023/02/12 13:47:31;;;;;;;5.70;3.70;;;;;;;;;;5053794;28;20063;-64
2023/02/12 13:50:03;;;;;;;6.75;3.60;;;;;;;;;;5040811;28;20045;-72
2023/02/12 13:52:51;;;;;;;9.13;4.18;;;;;;;;;;5052694;28;20036;-66
2023/02/12 13:55:26;;;;;;;7.43;4.28;;;;;;;;;;5050416;28;20109;-63
2023/02/12 13:58:11;;;;;;;7.38;3.97;;;;;;;;;;5050875;28;20032;-64
2023/02/12 14:00:52;;;;;;;5.25;4.13;;;;;;;;;;5051147;28;20100;-68
2023/02/12 14:03:25;;;;;;;6.18;4.00;;;;;;;;;;5051243;28;20048;-64
2023/02/12 14:06:10;;;;;;;10.63;4.97;;;;;;;;;;5051262;28;20433;-64
2023/02/12 14:08:37;;;;;;;13.02;6.05;;;;;;;;;;5050644;28;20124;-64
2023/02/12 14:11:04;;;;;;;16.77;7.70;;;;;;;;;;5051902;28;20021;-63
2023/02/12 14:13:44;;;;;;;16.05;8.95;;;;;;;;;;5034816;28;20085;-67
2023/02/12 14:16:36;;;;;;;17.58;9.68;;;;;;;;;;5053377;28;20028;-66
2023/02/12 14:19:22;;;;;;;20.30;10.70;;;;;;;;;;5053122;28;20033;-65
2023/02/12 14:21:48;;;;;;;22.05;9.80;;;;;;;;;;5050392;28;20085;-64
2023/02/12 14:24:34;;;;;;;19.88;9.23;;;;;;;;;;5052155;28;20108;-66
2023/02/12 14:27:00;;;;;;;21.23;10.15;;;;;;;;;;5036206;28;20039;-66
2023/02/12 14:29:26;;;;;;;18.77;8.45;;;;;;;;;;5051084;28;20037;-65
2023/02/12 14:31:52;;;;;;;17.85;8.75;;;;;;;;;;5052400;28;20025;-64
2023/02/12 14:34:21;;;;;;;18.00;8.77;;;;;;;;;;5051606;28;20032;-65
2023/02/12 14:36:48;;;;;;;20.42;8.77;;;;;;;;;;5052644;28;20032;-65
2023/02/12 14:39:20;;;;;;;17.55;9.02;;;;;;;;;;5051938;28;20035;-64
2023/02/12 14:41:46;;;;;;;17.58;8.70;;;;;;;;;;5052386;28;20029;-64
2023/02/12 14:44:20;;;;;;;14.02;9.02;;;;;;;;;;5052423;28;20404;-64
2023/02/12 14:46:52;;;;;;;13.45;8.25;;;;;;;;;;5051973;28;20067;-65
2023/02/12 14:49:25;;;;;;;17.75;9.07;;;;;;;;;;5052454;28;20436;-65
2023/02/12 14:51:55;;;;;;;13.43;8.00;;;;;;;;;;5032618;28;20034;-64
2023/02/12 14:54:30;;;;;;;18.13;8.25;;;;;;;;;;5032324;28;20440;-65
2023/02/12 14:57:00;;;;;;;14.32;8.68;;;;;;;;;;5032587;28;20048;-65
2023/02/12 14:59:26;;;;;;;14.65;8.00;;;;;;;;;;5032460;28;20009;-64